Time;durP1;ratioP1;P1;durP2;ratioP2;P2;SDS_P1;SDS_P2;PMS_P1;PMS_P2;Temp;Humidity;BMP_temperature;BMP_pressure;BME280_temperature;BME280_humidity;BME280_pressure;Samples;Min_cycle;Max_cycle;Signal;HPM_P1;HPM_P2
2021/12/30 00:01:43;;;;;;;4.70;2.38;;;21.50;45.10;;;;;;5043029;28;43436;-64
2021/12/30 00:04:10;;;;;;;5.25;2.70;;;21.40;45.10;;;;;;5043064;28;44747;-63
2021/12/30 00:06:41;;;;;;;3.67;2.25;;;21.40;45.10;;;;;;5043084;28;43478;-63
2021/12/30 00:09:10;;;;;;;3.83;2.00;;;21.40;45.10;;;;;;5041729;28;43436;-63
2021/12/30 00:11:38;;;;;;;5.05;2.40;;;21.40;45.10;;;;;;5042378;28;43517;-64
2021/12/30 00:14:06;;;;;;;4.30;2.20;;;21.40;45.10;;;;;;5043575;28;43999;-63
2021/12/30 00:16:34;;;;;;;7.03;2.67;;;21.40;45.10;;;;;;5041665;28;43716;-64
2021/12/30 00:19:03;;;;;;;4.70;2.28;;;21.30;45.00;;;;;;5041709;28;43436;-64
2021/12/30 00:21:30;;;;;;;4.38;2.38;;;21.30;45.10;;;;;;5045221;28;43490;-63
2021/12/30 00:23:58;;;;;;;4.60;2.50;;;21.40;45.20;;;;;;5046502;28;43959;-63
2021/12/30 00:26:25;;;;;;;5.95;2.67;;;21.30;45.10;;;;;;5079223;28;43735;-63
2021/12/30 00:28:53;;;;;;;5.00;2.42;;;21.30;45.10;;;;;;5042243;28;43389;-64
2021/12/30 00:31:21;;;;;;;6.40;2.50;;;21.30;45.10;;;;;;5046449;28;43494;-63
2021/12/30 00:33:49;;;;;;;4.55;2.40;;;21.30;45.10;;;;;;5078674;27;46976;-64
2021/12/30 00:36:17;;;;;;;4.78;2.40;;;21.30;45.20;;;;;;5046689;28;43432;-64
2021/12/30 00:38:45;;;;;;;5.30;2.30;;;21.20;45.80;;;;;;5042196;28;43506;-64
2021/12/30 00:41:12;;;;;;;4.72;2.55;;;21.20;45.10;;;;;;5046251;28;43459;-64
2021/12/30 00:43:40;;;;;;;6.38;2.75;;;21.20;45.10;;;;;;5045899;28;43786;-64
2021/12/30 00:46:09;;;;;;;5.50;2.40;;;21.20;45.20;;;;;;5040147;28;43694;-64
2021/12/30 00:48:37;;;;;;;6.15;2.17;;;21.20;45.20;;;;;;5046128;28;43416;-64
2021/12/30 00:51:06;;;;;;;4.75;2.25;;;21.20;45.80;;;;;;5046265;28;43527;-64
2021/12/30 00:53:34;;;;;;;4.57;2.05;;;21.20;45.20;;;;;;5045627;28;44700;-64
2021/12/30 00:56:01;;;;;;;5.15;2.60;;;21.20;45.20;;;;;;5043045;28;43508;-64
2021/12/30 00:58:29;;;;;;;3.55;2.00;;;21.20;45.20;;;;;;5044979;28;43431;-64
2021/12/30 01:00:59;;;;;;;4.13;2.53;;;21.20;45.20;;;;;;5061873;28;43498;-64
2021/12/30 01:03:28;;;;;;;5.05;2.38;;;21.20;45.20;;;;;;5045474;28;43866;-64
2021/12/30 01:05:55;;;;;;;6.32;2.85;;;21.10;45.20;;;;;;5042888;28;43531;-64
2021/12/30 01:08:23;;;;;;;5.38;2.95;;;21.10;45.80;;;;;;5044023;28;43578;-64
2021/12/30 01:10:51;;;;;;;4.45;2.22;;;21.10;45.20;;;;;;5041997;28;43470;-64
2021/12/30 01:13:24;;;;;;;5.70;2.60;;;21.10;45.20;;;;;;5045093;28;44718;-64
2021/12/30 01:16:02;;;;;;;6.80;2.83;;;21.10;45.20;;;;;;5045759;28;43437;-64
2021/12/30 01:18:55;;;;;;;3.70;2.00;;;21.10;45.20;;;;;;5045931;28;43456;-64
2021/12/30 01:21:28;;;;;;;4.13;2.20;;;21.10;45.20;;;;;;5045589;28;43433;-64
2021/12/30 01:23:57;;;;;;;4.47;2.50;;;21.10;45.20;;;;;;5044231;28;43916;-64
2021/12/30 01:26:25;;;;;;;3.75;1.98;;;21.10;45.20;;;;;;5045708;28;43365;-64
2021/12/30 01:28:53;;;;;;;5.32;2.67;;;21.00;45.30;;;;;;5045762;28;43499;-64
2021/12/30 01:31:22;;;;;;;4.63;2.25;;;21.00;45.20;;;;;;5077872;27;43478;-64
2021/12/30 01:34:09;;;;;;;4.22;2.33;;;21.00;45.30;;;;;;5045378;28;43953;-65
2021/12/30 01:36:36;;;;;;;6.22;2.92;;;21.00;45.30;;;;;;5040136;28;44747;-65
2021/12/30 01:39:04;;;;;;;4.93;2.40;;;21.00;45.30;;;;;;5045440;28;43495;-64
2021/12/30 01:41:31;;;;;;;5.90;2.50;;;21.00;45.30;;;;;;5045038;28;43447;-64
2021/12/30 01:43:59;;;;;;;5.15;2.70;;;21.00;45.30;;;;;;5044076;28;43613;-65
2021/12/30 01:46:36;;;;;;;6.63;3.33;;;21.00;45.40;;;;;;5043946;28;43477;-64
2021/12/30 01:49:04;;;;;;;5.70;2.90;;;20.90;45.30;;;;;;5044694;28;43435;-64
2021/12/30 01:51:32;;;;;;;5.32;2.97;;;20.90;45.30;;;;;;5043793;28;44029;-64
2021/12/30 01:54:00;;;;;;;5.60;2.50;;;20.90;45.30;;;;;;5045070;28;45774;-64
2021/12/30 01:56:28;;;;;;;5.63;2.80;;;21.00;45.30;;;;;;5045190;28;43451;-64
2021/12/30 01:58:56;;;;;;;5.38;2.60;;;20.90;45.30;;;;;;5043749;28;43456;-64
2021/12/30 02:01:24;;;;;;;4.68;2.78;;;20.90;45.30;;;;;;5048789;28;43372;-64
2021/12/30 02:03:52;;;;;;;5.68;2.50;;;20.90;45.40;;;;;;5044537;28;44056;-64
2021/12/30 02:06:21;;;;;;;7.07;2.90;;;20.90;45.30;;;;;;5044715;28;43566;-64
2021/12/30 02:08:50;;;;;;;6.32;2.83;;;20.90;45.30;;;;;;5076995;28;43436;-64
2021/12/30 02:11:22;;;;;;;7.28;2.72;;;20.90;45.40;;;;;;5040372;28;43515;-64
2021/12/30 02:13:51;;;;;;;5.57;2.67;;;20.90;45.40;;;;;;5046168;28;43814;-64
2021/12/30 02:16:21;;;;;;;5.93;2.88;;;20.90;45.40;;;;;;5043489;28;43474;-64
2021/12/30 02:18:50;;;;;;;4.75;2.65;;;20.90;45.40;;;;;;5043275;28;43386;-64
2021/12/30 02:21:17;;;;;;;6.18;2.90;;;20.90;45.40;;;;;;5043063;28;43482;-64
2021/12/30 02:23:45;;;;;;;5.78;2.72;;;20.80;45.30;;;;;;5044692;28;44033;-64
2021/12/30 02:26:16;;;;;;;5.50;2.85;;;20.90;45.40;;;;;;5077034;28;43468;-64
2021/12/30 02:28:45;;;;;;;7.90;3.47;;;20.80;45.40;;;;;;5043335;28;43471;-65
2021/12/30 02:31:16;;;;;;;5.78;2.90;;;20.80;46.00;;;;;;5044351;28;43442;-64
2021/12/30 02:33:46;;;;;;;6.65;3.10;;;20.80;45.40;;;;;;5043299;28;43963;-64
2021/12/30 02:36:17;;;;;;;6.00;2.90;;;20.80;45.30;;;;;;5044011;28;43530;-65
2021/12/30 02:38:46;;;;;;;6.00;2.85;;;20.80;45.40;;;;;;5039934;28;43451;-64
2021/12/30 02:41:17;;;;;;;5.93;2.90;;;20.80;45.40;;;;;;5044410;28;43483;-64
2021/12/30 02:43:50;;;;;;;6.82;3.20;;;20.70;45.40;;;;;;5043160;28;44712;-64
2021/12/30 02:46:22;;;;;;;6.43;3.03;;;20.80;45.40;;;;;;5043727;28;43620;-64
2021/12/30 02:48:52;;;;;;;6.47;2.92;;;20.80;45.40;;;;;;5043440;28;43475;-64
2021/12/30 02:51:21;;;;;;;5.77;3.27;;;20.80;45.40;;;;;;5041185;28;43495;-64
2021/12/30 02:53:49;;;;;;;5.28;2.63;;;20.80;45.40;;;;;;5041323;28;44077;-64
2021/12/30 02:56:18;;;;;;;8.00;3.17;;;20.70;45.30;;;;;;5042867;28;43429;-65
2021/12/30 02:58:45;;;;;;;5.75;3.00;;;20.70;45.30;;;;;;5044423;28;43431;-64
2021/12/30 03:01:29;;;;;;;6.93;3.00;;;20.80;45.30;;;;;;5044127;28;43464;-64
2021/12/30 03:04:00;;;;;;;7.45;3.47;;;20.70;45.30;;;;;;5041161;28;44699;-64
2021/12/30 03:06:28;;;;;;;5.80;3.08;;;20.70;45.30;;;;;;5042457;28;44141;-64
2021/12/30 03:08:56;;;;;;;6.07;3.35;;;20.70;45.40;;;;;;5042964;28;43575;-64
2021/12/30 03:11:25;;;;;;;5.53;2.80;;;20.70;46.00;;;;;;5043330;28;43444;-64
2021/12/30 03:13:54;;;;;;;8.32;3.20;;;20.70;45.30;;;;;;5041722;28;43891;-64
2021/12/30 03:16:32;;;;;;;6.68;3.17;;;20.70;45.40;;;;;;5043678;28;43530;-64
2021/12/30 03:19:00;;;;;;;7.07;3.15;;;20.70;45.40;;;;;;5037867;28;43419;-64
2021/12/30 03:21:28;;;;;;;5.28;2.90;;;20.60;45.40;;;;;;5075806;28;43467;-64
2021/12/30 03:23:58;;;;;;;7.72;3.42;;;20.70;45.40;;;;;;5071516;28;44696;-64
2021/12/30 03:26:26;;;;;;;6.83;3.43;;;20.60;45.40;;;;;;5043670;28;43475;-65
2021/12/30 03:28:54;;;;;;;7.32;3.28;;;20.60;45.40;;;;;;5042450;28;43448;-64
2021/12/30 03:31:22;;;;;;;6.30;2.90;;;20.60;45.40;;;;;;5047913;28;44123;-64
2021/12/30 03:33:50;;;;;;;6.60;2.95;;;20.60;45.40;;;;;;5043478;28;44111;-64
2021/12/30 03:36:19;;;;;;;6.35;3.03;;;20.60;45.40;;;;;;5043212;28;43471;-65
2021/12/30 03:38:50;;;;;;;6.30;3.05;;;20.60;45.40;;;;;;5042603;28;43490;-64
2021/12/30 03:41:20;;;;;;;7.47;3.50;;;20.60;45.40;;;;;;5043851;28;43561;-64
2021/12/30 03:43:48;;;;;;;4.05;2.80;;;20.60;45.40;;;;;;5042232;28;44686;-64
2021/12/30 03:46:16;;;;;;;7.05;3.50;;;20.60;45.50;;;;;;5075836;28;43482;-65
2021/12/30 03:48:44;;;;;;;8.02;3.92;;;20.60;45.50;;;;;;5043741;28;43508;-65
2021/12/30 03:51:20;;;;;;;7.28;3.13;;;20.50;45.40;;;;;;5043383;28;43556;-65
2021/12/30 03:53:50;;;;;;;6.82;3.05;;;20.60;45.50;;;;;;5042064;28;44209;-64
2021/12/30 03:56:24;;;;;;;6.25;2.90;;;20.50;45.50;;;;;;5043549;28;43447;-64
2021/12/30 03:58:52;;;;;;;6.65;3.42;;;20.60;45.50;;;;;;5039518;28;43583;-64
2021/12/30 04:01:21;;;;;;;7.35;3.45;;;20.50;45.40;;;;;;5075703;28;44281;-64
2021/12/30 04:03:50;;;;;;;6.63;3.15;;;20.50;45.50;;;;;;5039333;28;44032;-64
2021/12/30 04:06:18;;;;;;;7.78;3.58;;;20.50;45.50;;;;;;5041530;28;43975;-65
2021/12/30 04:08:46;;;;;;;6.88;3.30;;;20.50;45.60;;;;;;5042970;28;43440;-65
2021/12/30 04:11:14;;;;;;;5.47;3.13;;;20.50;45.50;;;;;;5041464;28;43463;-65
2021/12/30 04:13:41;;;;;;;6.45;3.17;;;20.50;45.60;;;;;;5044427;28;44048;-65
2021/12/30 04:16:09;;;;;;;7.93;3.40;;;20.50;45.50;;;;;;5044670;28;43456;-64
2021/12/30 04:18:36;;;;;;;6.70;3.33;;;20.50;45.60;;;;;;5075691;28;43437;-64
2021/12/30 04:21:04;;;;;;;8.45;3.67;;;20.50;45.60;;;;;;5041758;28;43463;-64
2021/12/30 04:23:31;;;;;;;6.93;3.38;;;20.50;45.70;;;;;;5042655;28;43932;-64
2021/12/30 04:25:59;;;;;;;7.05;3.30;;;20.40;45.60;;;;;;5075609;27;43460;-64
2021/12/30 04:28:26;;;;;;;7.97;3.33;;;20.50;45.60;;;;;;5042946;28;44157;-64
2021/12/30 04:30:54;;;;;;;6.40;3.35;;;20.50;45.60;;;;;;5076007;27;43441;-64
2021/12/30 04:33:21;;;;;;;6.78;3.08;;;20.40;45.60;;;;;;5042653;28;44046;-64
2021/12/30 04:35:51;;;;;;;6.35;3.40;;;20.40;45.60;;;;;;5040994;28;43458;-65
2021/12/30 04:38:18;;;;;;;6.78;3.40;;;20.40;45.60;;;;;;5075569;28;43432;-64
2021/12/30 04:40:46;;;;;;;6.97;3.30;;;20.40;45.60;;;;;;5041462;28;43662;-64
2021/12/30 04:43:13;;;;;;;7.03;3.65;;;20.40;45.70;;;;;;5042264;28;43783;-64
2021/12/30 04:45:43;;;;;;;7.82;3.65;;;20.40;45.70;;;;;;5042679;28;43458;-64
2021/12/30 04:48:10;;;;;;;6.10;3.22;;;20.40;45.70;;;;;;5039110;28;43607;-64
2021/12/30 04:50:38;;;;;;;7.22;3.35;;;20.30;45.70;;;;;;5041815;28;43522;-65
2021/12/30 04:53:07;;;;;;;6.55;3.33;;;20.40;45.70;;;;;;5040804;28;43807;-65
2021/12/30 04:55:34;;;;;;;7.28;3.05;;;20.40;45.80;;;;;;5075257;28;43908;-64
2021/12/30 04:58:02;;;;;;;7.18;3.70;;;20.40;45.80;;;;;;5074999;28;43381;-64
2021/12/30 05:00:29;;;;;;;5.70;3.13;;;20.30;45.70;;;;;;5042497;28;43506;-64
2021/12/30 05:03:20;;;;;;;7.25;3.70;;;20.30;45.70;;;;;;5057586;28;44744;-64
2021/12/30 05:05:47;;;;;;;8.63;3.88;;;20.40;45.80;;;;;;5041795;28;44027;-64
2021/12/30 05:08:17;;;;;;;6.07;3.50;;;20.30;45.80;;;;;;5044548;28;43682;-65
2021/12/30 05:10:45;;;;;;;6.60;3.38;;;20.30;45.80;;;;;;5039284;28;43463;-65
2021/12/30 05:13:14;;;;;;;5.57;2.80;;;20.30;45.80;;;;;;5078435;27;43902;-64
2021/12/30 05:15:41;;;;;;;6.80;3.40;;;20.30;45.80;;;;;;5043357;28;44016;-65
2021/12/30 05:18:13;;;;;;;6.88;3.63;;;20.30;45.80;;;;;;5044679;28;43454;-64
2021/12/30 05:20:41;;;;;;;6.30;3.15;;;20.30;45.90;;;;;;5079102;28;43522;-64
2021/12/30 05:23:09;;;;;;;6.38;3.42;;;20.30;45.80;;;;;;5061260;28;43973;-65
2021/12/30 05:25:37;;;;;;;6.30;2.92;;;20.30;45.80;;;;;;5044061;28;43463;-65
2021/12/30 05:28:05;;;;;;;6.80;3.45;;;20.30;45.80;;;;;;5042979;28;43538;-64
2021/12/30 05:30:32;;;;;;;7.90;3.90;;;20.30;45.80;;;;;;5078808;28;43514;-64
2021/12/30 05:33:00;;;;;;;6.72;3.10;;;20.30;45.90;;;;;;5045062;28;45234;-64
2021/12/30 05:35:27;;;;;;;5.72;3.47;;;20.30;45.90;;;;;;5045674;28;43410;-64
2021/12/30 05:37:55;;;;;;;7.57;3.70;;;20.30;45.90;;;;;;5042374;28;43559;-64
2021/12/30 05:40:23;;;;;;;5.95;3.25;;;20.20;45.90;;;;;;5078352;28;43644;-65
2021/12/30 05:42:51;;;;;;;5.38;2.90;;;20.20;46.00;;;;;;5077742;28;44637;-64
2021/12/30 05:45:19;;;;;;;7.00;3.80;;;20.20;46.10;;;;;;5080157;28;43404;-65
2021/12/30 05:47:50;;;;;;;7.55;3.60;;;20.20;46.00;;;;;;5045768;28;43517;-65
2021/12/30 05:50:24;;;;;;;6.07;3.22;;;20.20;46.00;;;;;;5046000;28;43419;-64
2021/12/30 05:52:52;;;;;;;7.35;3.20;;;20.20;46.10;;;;;;5043908;28;43987;-65
2021/12/30 05:55:20;;;;;;;6.70;3.40;;;20.20;46.00;;;;;;5078007;28;43472;-64
2021/12/30 05:57:49;;;;;;;7.00;3.33;;;20.20;46.00;;;;;;5045552;28;43395;-65
2021/12/30 06:00:19;;;;;;;6.03;3.17;;;20.20;46.00;;;;;;5045436;28;43480;-65
2021/12/30 06:02:47;;;;;;;6.63;3.50;;;20.20;46.00;;;;;;5044657;28;43780;-65
2021/12/30 06:05:15;;;;;;;7.75;3.38;;;20.20;46.00;;;;;;5043502;28;43408;-64
2021/12/30 06:07:43;;;;;;;6.25;3.15;;;20.20;46.10;;;;;;5060343;28;43419;-64
2021/12/30 06:10:11;;;;;;;6.55;3.50;;;20.20;46.10;;;;;;5044489;28;43496;-64
2021/12/30 06:12:39;;;;;;;6.90;3.38;;;20.20;46.10;;;;;;5042946;28;44100;-65
2021/12/30 06:15:08;;;;;;;4.95;3.08;;;20.20;46.00;;;;;;5046464;28;43757;-65
2021/12/30 06:17:37;;;;;;;5.50;2.83;;;20.20;46.10;;;;;;5060182;28;43486;-65
2021/12/30 06:20:09;;;;;;;6.40;3.42;;;20.20;46.10;;;;;;5044885;28;43617;-65
2021/12/30 06:22:37;;;;;;;7.07;3.10;;;20.20;46.10;;;;;;5040835;28;43563;-65
2021/12/30 06:25:05;;;;;;;8.60;3.97;;;20.20;46.10;;;;;;5041810;28;43551;-65
2021/12/30 06:27:33;;;;;;;5.78;3.00;;;20.20;46.10;;;;;;5077265;28;43426;-64
2021/12/30 06:30:02;;;;;;;6.28;3.42;;;20.20;46.10;;;;;;5044660;28;43568;-64
2021/12/30 06:32:30;;;;;;;6.10;3.10;;;20.20;46.20;;;;;;5076528;28;44204;-66
2021/12/30 06:34:58;;;;;;;5.93;3.00;;;20.20;46.20;;;;;;5043311;28;44923;-64
2021/12/30 06:37:25;;;;;;;6.30;2.95;;;20.20;46.20;;;;;;5044609;28;43937;-65
2021/12/30 06:39:53;;;;;;;6.22;2.97;;;20.30;46.90;;;;;;5044542;28;43450;-65
2021/12/30 06:42:20;;;;;;;7.82;3.55;;;20.30;46.20;;;;;;5059786;28;44046;-64
2021/12/30 06:44:48;;;;;;;4.45;2.90;;;20.30;46.20;;;;;;5041440;28;43440;-64
2021/12/30 06:47:15;;;;;;;5.60;2.92;;;20.30;46.20;;;;;;5077082;27;43458;-64
2021/12/30 06:49:43;;;;;;;6.28;3.15;;;20.30;46.20;;;;;;5044241;28;43506;-64
2021/12/30 06:52:12;;;;;;;5.65;3.03;;;20.30;46.20;;;;;;5077939;28;44791;-65
2021/12/30 06:54:40;;;;;;;5.95;3.00;;;20.30;46.20;;;;;;5042695;28;43702;-65
2021/12/30 06:57:10;;;;;;;4.07;2.60;;;20.30;46.30;;;;;;5044769;28;43474;-65
2021/12/30 06:59:38;;;;;;;4.95;3.05;;;20.40;46.20;;;;;;5042499;28;43463;-65
2021/12/30 07:02:07;;;;;;;5.22;2.80;;;20.40;46.20;;;;;;5075295;28;43930;-65
2021/12/30 07:04:35;;;;;;;3.13;2.47;;;20.40;46.20;;;;;;5043850;28;44092;-65
2021/12/30 07:07:02;;;;;;;5.85;2.90;;;20.40;46.20;;;;;;5076308;28;43397;-66
2021/12/30 07:09:30;;;;;;;3.83;2.40;;;20.40;46.20;;;;;;5076862;27;43569;-64
2021/12/30 07:11:58;;;;;;;4.38;2.80;;;20.40;46.20;;;;;;5042081;28;43939;-65
2021/12/30 07:14:26;;;;;;;5.13;2.50;;;20.40;46.20;;;;;;5076427;27;43479;-65
2021/12/30 07:16:55;;;;;;;3.83;2.50;;;20.50;46.20;;;;;;5044104;28;43542;-64
2021/12/30 07:19:22;;;;;;;4.20;2.65;;;20.40;46.20;;;;;;5075128;28;43519;-66
2021/12/30 07:21:51;;;;;;;3.88;2.45;;;20.40;46.30;;;;;;5076479;28;44008;-64
2021/12/30 07:24:22;;;;;;;2.83;2.20;;;20.50;46.50;;;;;;5042632;28;43409;-65
2021/12/30 07:26:51;;;;;;;3.72;2.53;;;20.50;46.40;;;;;;5042141;28;43509;-65
2021/12/30 07:29:19;;;;;;;3.63;2.38;;;20.50;46.30;;;;;;5074947;27;43566;-65
2021/12/30 07:31:48;;;;;;;3.83;2.40;;;20.60;46.30;;;;;;5041799;28;45971;-64
2021/12/30 07:34:15;;;;;;;2.63;2.10;;;20.60;46.30;;;;;;5070771;27;43452;-66
2021/12/30 07:36:43;;;;;;;3.83;2.22;;;20.60;46.30;;;;;;5042274;28;43383;-65
2021/12/30 07:39:10;;;;;;;3.00;2.30;;;20.60;46.30;;;;;;5076131;28;43624;-65
2021/12/30 07:41:38;;;;;;;3.50;2.22;;;20.60;46.30;;;;;;5041299;28;43948;-65
2021/12/30 07:44:06;;;;;;;3.05;2.10;;;20.60;46.30;;;;;;5042045;28;43435;-65
2021/12/30 07:46:33;;;;;;;2.67;1.98;;;20.70;46.40;;;;;;5042614;28;43467;-66
2021/12/30 07:49:01;;;;;;;2.95;2.25;;;20.60;46.30;;;;;;5075411;28;43659;-64
2021/12/30 07:51:29;;;;;;;3.15;2.20;;;20.70;46.40;;;;;;5042090;28;46415;-65
2021/12/30 07:53:56;;;;;;;2.95;2.00;;;20.70;46.40;;;;;;5075957;28;43778;-65
2021/12/30 07:56:24;;;;;;;2.92;2.03;;;20.70;46.40;;;;;;5041944;28;43476;-65
2021/12/30 07:58:55;;;;;;;2.17;1.67;;;20.70;46.40;;;;;;5038599;28;43427;-65
2021/12/30 08:01:25;;;;;;;2.00;1.70;;;20.70;46.40;;;;;;5041732;28;43938;-65
2021/12/30 08:03:53;;;;;;;3.17;1.88;;;20.80;46.40;;;;;;5075544;28;43657;-65
2021/12/30 08:06:22;;;;;;;2.00;1.75;;;20.80;46.40;;;;;;5041766;28;43491;-64
2021/12/30 08:08:49;;;;;;;1.60;1.50;;;20.80;46.30;;;;;;5075508;28;43519;-64
2021/12/30 08:11:16;;;;;;;2.00;1.73;;;20.80;46.30;;;;;;5040722;28;43947;-65
2021/12/30 08:13:44;;;;;;;2.72;1.70;;;20.80;47.00;;;;;;5041454;28;43440;-64
2021/12/30 08:16:13;;;;;;;1.70;1.60;;;20.80;46.40;;;;;;5040624;28;43418;-65
2021/12/30 08:18:41;;;;;;;2.75;1.77;;;20.80;46.40;;;;;;5074274;28;43672;-65
2021/12/30 08:21:10;;;;;;;2.03;1.50;;;20.90;46.50;;;;;;5042052;28;43708;-63
2021/12/30 08:23:38;;;;;;;4.55;1.67;;;20.90;46.50;;;;;;5046960;28;43428;-65
2021/12/30 08:26:06;;;;;;;2.63;1.70;;;20.90;46.40;;;;;;5042739;28;43639;-65
2021/12/30 08:28:33;;;;;;;2.17;1.52;;;20.90;46.50;;;;;;5040412;28;43552;-64
2021/12/30 08:31:01;;;;;;;1.55;1.33;;;20.90;46.50;;;;;;5044840;28;43950;-65
2021/12/30 08:33:29;;;;;;;1.52;1.30;;;20.90;46.50;;;;;;5041337;28;43490;-64
2021/12/30 08:35:57;;;;;;;2.97;1.77;;;20.90;46.50;;;;;;5073772;28;43545;-65
2021/12/30 08:38:24;;;;;;;1.98;1.40;;;21.00;46.50;;;;;;5040027;28;43460;-65
2021/12/30 08:40:52;;;;;;;1.48;1.20;;;21.00;46.60;;;;;;5042532;28;43624;-64
2021/12/30 08:43:20;;;;;;;1.20;1.10;;;21.00;46.60;;;;;;5044841;28;43424;-65
2021/12/30 08:45:48;;;;;;;1.38;1.00;;;21.00;46.60;;;;;;5045134;28;43471;-64
2021/12/30 08:48:16;;;;;;;2.05;1.30;;;21.00;47.20;;;;;;5079133;28;43603;-66
2021/12/30 08:50:44;;;;;;;1.50;1.05;;;21.10;46.60;;;;;;5044781;28;43953;-65
2021/12/30 08:53:13;;;;;;;1.25;1.15;;;21.00;46.50;;;;;;5044631;28;43602;-64
2021/12/30 08:55:41;;;;;;;1.30;0.82;;;21.10;46.60;;;;;;5078267;27;43430;-65
2021/12/30 08:58:09;;;;;;;1.30;0.93;;;21.10;46.60;;;;;;5045109;28;43574;-64
2021/12/30 09:00:38;;;;;;;1.17;1.02;;;21.10;46.60;;;;;;5045698;28;43773;-65
2021/12/30 09:03:07;;;;;;;1.00;0.90;;;21.20;46.70;;;;;;5078663;27;45619;-65
2021/12/30 09:05:35;;;;;;;1.25;0.95;;;21.20;46.70;;;;;;5042954;28;43454;-65
2021/12/30 09:08:04;;;;;;;0.90;0.80;;;21.20;46.70;;;;;;5046048;28;43461;-64
2021/12/30 09:10:37;;;;;;;1.20;1.10;;;21.20;46.70;;;;;;5045295;28;44982;-64
2021/12/30 09:13:04;;;;;;;0.80;0.80;;;21.20;46.80;;;;;;5079442;28;43509;-65
2021/12/30 09:15:32;;;;;;;0.85;0.85;;;21.20;46.90;;;;;;5071444;27;43513;-64
2021/12/30 09:17:59;;;;;;;0.82;0.82;;;21.30;46.90;;;;;;5042918;28;43590;-65
2021/12/30 09:20:27;;;;;;;0.98;0.88;;;21.30;46.90;;;;;;5042616;28;43956;-65
2021/12/30 09:22:56;;;;;;;0.80;0.80;;;21.30;46.90;;;;;;5043133;28;43435;-65
2021/12/30 09:25:24;;;;;;;1.38;0.90;;;21.40;46.90;;;;;;5039376;28;44107;-65
2021/12/30 09:27:54;;;;;;;0.80;0.80;;;21.40;46.90;;;;;;5042768;28;43514;-65
2021/12/30 09:30:24;;;;;;;0.77;0.77;;;21.40;46.90;;;;;;5076260;28;43810;-64
2021/12/30 09:32:53;;;;;;;0.90;0.90;;;21.50;46.90;;;;;;5076633;28;43598;-66
2021/12/30 09:35:22;;;;;;;1.13;1.02;;;21.50;46.90;;;;;;5043305;28;43698;-67
2021/12/30 09:37:49;;;;;;;0.80;0.80;;;21.50;46.90;;;;;;5075624;28;43501;-65
2021/12/30 09:40:18;;;;;;;1.10;1.00;;;21.50;46.90;;;;;;5042891;28;45707;-66
2021/12/30 09:42:49;;;;;;;1.33;1.05;;;21.50;47.00;;;;;;5059322;28;43608;-66
2021/12/30 09:45:17;;;;;;;1.75;0.80;;;21.60;47.00;;;;;;5076303;27;43480;-68
2021/12/30 09:47:50;;;;;;;0.70;0.70;;;21.60;47.00;;;;;;5044394;28;43506;-69
2021/12/30 09:50:20;;;;;;;2.17;1.02;;;21.60;47.00;;;;;;5041354;28;43724;-66
2021/12/30 09:52:48;;;;;;;1.15;0.85;;;21.70;47.30;;;;;;5075353;27;43494;-66
2021/12/30 09:55:15;;;;;;;6.55;2.72;;;21.70;47.10;;;;;;5042486;28;44170;-68
2021/12/30 09:57:43;;;;;;;10.65;7.07;;;21.70;48.00;;;;;;5076585;28;43518;-66
2021/12/30 10:00:13;;;;;;;9.95;6.40;;;21.70;48.00;;;;;;5073373;27;43925;-67
2021/12/30 10:02:42;;;;;;;8.55;5.85;;;21.80;48.20;;;;;;5043455;28;43575;-67
2021/12/30 10:05:14;;;;;;;8.35;5.22;;;21.80;47.80;;;;;;5042605;28;43475;-67
2021/12/30 10:07:41;;;;;;;;;;;21.80;47.90;;;;;;5073696;28;43562;-68
2021/12/30 10:10:30;;;;;;;6.47;4.30;;;21.90;47.90;;;;;;5058926;28;45264;-65
2021/12/30 10:12:58;;;;;;;6.75;5.00;;;21.80;47.80;;;;;;5074886;27;43422;-66
2021/12/30 10:15:29;;;;;;;7.55;4.55;;;21.80;47.80;;;;;;5040936;28;43482;-66
2021/12/30 10:17:59;;;;;;;6.35;4.45;;;21.90;47.90;;;;;;5042669;28;43459;-66
2021/12/30 10:20:31;;;;;;;6.22;3.95;;;21.90;47.80;;;;;;5076148;28;44073;-67
2021/12/30 10:23:15;;;;;;;6.15;4.10;;;21.90;47.90;;;;;;5043448;28;43466;-66
2021/12/30 10:25:46;;;;;;;6.63;3.95;;;22.00;47.80;;;;;;5069853;27;43485;-65
2021/12/30 10:28:26;;;;;;;6.07;4.00;;;22.00;47.70;;;;;;5038487;28;43568;-66
2021/12/30 10:31:15;;;;;;;5.80;3.85;;;22.00;47.80;;;;;;5075085;27;44201;-67
2021/12/30 10:33:57;;;;;;;7.20;3.72;;;22.00;47.90;;;;;;5072237;28;43473;-67
2021/12/30 10:36:32;;;;;;;5.35;3.47;;;22.00;47.80;;;;;;5041893;28;43472;-68
2021/12/30 10:39:20;;;;;;;6.22;3.58;;;22.10;47.80;;;;;;5074405;28;43612;-65
2021/12/30 10:41:52;;;;;;;5.25;3.47;;;22.10;47.80;;;;;;5073983;28;43929;-66
2021/12/30 10:44:21;;;;;;;6.35;3.20;;;22.10;47.80;;;;;;5074931;28;43481;-66
2021/12/30 10:46:48;;;;;;;4.68;3.00;;;22.10;47.80;;;;;;5075626;28;43538;-68
2021/12/30 10:49:25;;;;;;;5.50;3.10;;;22.10;47.70;;;;;;5075752;28;43617;-68
2021/12/30 10:51:57;;;;;;;4.70;3.00;;;22.20;47.70;;;;;;5069366;28;45436;-68
2021/12/30 10:54:28;;;;;;;4.53;2.58;;;22.20;47.80;;;;;;5070348;28;45308;-67
2021/12/30 10:57:07;;;;;;;5.50;3.28;;;22.20;47.80;;;;;;5073493;28;43481;-67
2021/12/30 10:59:38;;;;;;;4.25;2.50;;;22.20;47.90;;;;;;5038646;28;43478;-67
2021/12/30 11:02:15;;;;;;;4.03;2.50;;;22.20;47.80;;;;;;5039031;28;44651;-67
2021/12/30 11:04:43;;;;;;;4.10;2.38;;;22.20;47.80;;;;;;5035411;28;44433;-66
2021/12/30 11:07:14;;;;;;;4.32;2.35;;;22.20;47.80;;;;;;5073011;28;43526;-66
2021/12/30 11:09:47;;;;;;;5.05;2.60;;;22.30;47.90;;;;;;5073422;28;43510;-67
2021/12/30 11:12:16;;;;;;;4.80;2.45;;;22.30;47.80;;;;;;5072231;28;45321;-67
2021/12/30 11:14:43;;;;;;;4.03;2.38;;;22.30;47.80;;;;;;5071516;27;43503;-67
2021/12/30 11:17:16;;;;;;;3.63;2.20;;;22.30;47.80;;;;;;5055976;28;43493;-67
2021/12/30 11:20:08;;;;;;;4.47;2.63;;;22.30;47.80;;;;;;5072955;28;43467;-66
2021/12/30 11:22:40;;;;;;;3.75;2.30;;;22.40;47.80;;;;;;5072019;27;45667;-67
2021/12/30 11:25:11;;;;;;;4.72;2.30;;;22.40;47.80;;;;;;5038466;28;43508;-67
2021/12/30 11:27:39;;;;;;;4.35;2.20;;;22.40;47.70;;;;;;5061208;28;43450;-67
2021/12/30 11:30:17;;;;;;;4.75;2.35;;;22.40;47.70;;;;;;5039040;28;43571;-67
2021/12/30 11:32:49;;;;;;;4.35;2.30;;;22.50;47.70;;;;;;5072201;28;45510;-67
2021/12/30 11:35:20;;;;;;;3.15;2.17;;;22.50;47.60;;;;;;5069472;27;43476;-66
2021/12/30 11:37:49;;;;;;;3.80;2.20;;;22.50;47.60;;;;;;5086599;27;43491;-67
2021/12/30 11:40:26;;;;;;;4.22;2.10;;;22.50;47.60;;;;;;5040475;28;43602;-67
2021/12/30 11:43:08;;;;;;;3.15;2.13;;;22.50;47.50;;;;;;5069110;28;43912;-67
2021/12/30 11:45:39;;;;;;;4.22;2.30;;;22.50;48.30;;;;;;5070801;28;43560;-66
2021/12/30 11:48:24;;;;;;;;;;;22.60;47.60;;;;;;5056093;28;43582;-67
2021/12/30 11:51:10;;;;;;;4.47;2.10;;;22.60;47.60;;;;;;5070155;27;43491;-67
2021/12/30 11:53:39;;;;;;;5.10;2.15;;;22.60;47.70;;;;;;5035325;28;44091;-67
2021/12/30 11:56:10;;;;;;;4.07;2.10;;;22.60;47.70;;;;;;5037056;28;43529;-66
2021/12/30 11:58:43;;;;;;;;;;;22.60;47.70;;;;;;5072399;28;43512;-67
2021/12/30 12:01:10;;;;;;;5.60;2.80;;;22.60;47.70;;;;;;5038260;28;44150;-67
2021/12/30 12:03:44;;;;;;;4.28;2.38;;;22.60;47.60;;;;;;5071616;27;44206;-66
2021/12/30 12:06:42;;;;;;;5.25;2.30;;;22.70;47.70;;;;;;5070061;27;43513;-66
2021/12/30 12:09:19;;;;;;;5.53;2.70;;;22.70;47.60;;;;;;5038379;28;43459;-65
2021/12/30 12:12:07;;;;;;;5.05;2.40;;;22.70;47.60;;;;;;5036571;28;44306;-65
2021/12/30 12:14:53;;;;;;;6.00;2.50;;;22.70;47.60;;;;;;5038813;28;43825;-67
2021/12/30 12:17:38;;;;;;;5.45;2.38;;;22.70;47.50;;;;;;5076734;28;44705;-67
2021/12/30 12:20:23;;;;;;;5.70;2.65;;;22.70;47.50;;;;;;5044273;28;43560;-67
2021/12/30 12:22:51;;;;;;;5.32;2.78;;;22.70;47.60;;;;;;5077533;27;43668;-67
2021/12/30 12:25:24;;;;;;;6.45;2.88;;;22.80;47.60;;;;;;5043242;28;45333;-65
2021/12/30 12:27:53;;;;;;;4.85;2.25;;;22.80;47.40;;;;;;5071800;28;43452;-67
2021/12/30 12:30:25;;;;;;;5.80;2.90;;;22.80;47.50;;;;;;5041316;28;44053;-66
2021/12/30 12:32:55;;;;;;;6.22;2.78;;;22.90;47.40;;;;;;5094862;27;43616;-66
2021/12/30 12:35:29;;;;;;;5.32;2.78;;;22.90;47.40;;;;;;5077862;28;43955;-67
2021/12/30 12:38:05;;;;;;;7.10;3.10;;;22.80;47.40;;;;;;5078533;27;44752;-67
2021/12/30 12:40:42;;;;;;;7.93;2.70;;;22.80;47.40;;;;;;5043715;28;43519;-67
2021/12/30 12:43:14;;;;;;;7.00;2.90;;;22.90;47.50;;;;;;5043388;28;43921;-66
2021/12/30 12:46:03;;;;;;;7.15;3.30;;;22.80;48.20;;;;;;5077782;27;44207;-66
2021/12/30 12:48:39;;;;;;;5.50;2.95;;;22.90;47.70;;;;;;5077616;27;43550;-67
2021/12/30 12:51:21;;;;;;;6.43;3.05;;;22.90;47.50;;;;;;5078503;27;43575;-67
2021/12/30 12:53:53;;;;;;;5.93;2.78;;;22.90;47.60;;;;;;5077965;28;43466;-66
2021/12/30 12:56:30;;;;;;;5.07;2.63;;;22.90;47.50;;;;;;5060799;28;45741;-66
2021/12/30 12:59:03;;;;;;;7.13;3.30;;;22.90;47.70;;;;;;5078062;27;43578;-66
2021/12/30 13:01:33;;;;;;;7.22;2.92;;;23.00;47.70;;;;;;5044599;28;43506;-66
2021/12/30 13:04:04;;;;;;;7.17;3.03;;;23.00;47.60;;;;;;5077745;27;43480;-67